Time;durP1;ratioP1;P1;durP2;ratioP2;P2;SDS_P1;SDS_P2;PMS_P1;PMS_P2;Temp;Humidity;BMP_temperature;BMP_pressure;BME280_temperature;BME280_humidity;BME280_pressure;Samples;Min_cycle;Max_cycle;Signal;HPM_P1;HPM_P2
2023/12/26 00:00:40;;;;;;;;;;;19.90;49.50;;;;;;5031702;28;19921;-61
2023/12/26 00:03:07;;;;;;;;;;;19.90;49.50;;;;;;5032414;28;19943;-62
2023/12/26 00:05:34;;;;;;;;;;;19.90;49.50;;;;;;5030717;28;19920;-62
2023/12/26 00:08:03;;;;;;;;;;;19.90;49.50;;;;;;5029674;28;19925;-62
2023/12/26 00:10:31;;;;;;;;;;;19.90;49.50;;;;;;5030676;28;19925;-61
2023/12/26 00:12:59;;;;;;;;;;;19.90;49.50;;;;;;5031302;28;19928;-62
2023/12/26 00:15:26;;;;;;;;;;;19.90;49.50;;;;;;5031975;28;19921;-62
2023/12/26 00:17:53;;;;;;;;;;;19.90;49.50;;;;;;5030815;28;19925;-61
2023/12/26 00:20:20;;;;;;;;;;;19.90;49.50;;;;;;5030573;28;19921;-62
2023/12/26 00:22:47;;;;;;;;;;;19.90;49.50;;;;;;5031835;28;20005;-61
2023/12/26 00:25:13;;;;;;;;;;;19.90;49.50;;;;;;5031997;28;19929;-61
2023/12/26 00:27:42;;;;;;;;;;;19.90;49.50;;;;;;5029551;28;19921;-61
2023/12/26 00:30:09;;;;;;;;;;;19.90;49.50;;;;;;5031585;28;19921;-61
2023/12/26 00:32:36;;;;;;;;;;;19.90;49.50;;;;;;5030176;28;19933;-61
2023/12/26 00:35:02;;;;;;;;;;;19.90;49.50;;;;;;5030551;28;19929;-61
2023/12/26 00:37:31;;;;;;;;;;;19.90;49.50;;;;;;5030174;28;19921;-61
2023/12/26 00:39:58;;;;;;;;;;;19.90;49.50;;;;;;5030726;28;19936;-61
2023/12/26 00:42:25;;;;;;;;;;;19.80;49.40;;;;;;5028746;28;19928;-61
2023/12/26 00:44:53;;;;;;;;;;;19.90;49.50;;;;;;5031572;28;19921;-61
2023/12/26 00:47:20;;;;;;;;;;;19.80;49.40;;;;;;5030063;28;20269;-61
2023/12/26 00:49:47;;;;;;;;;;;19.80;49.40;;;;;;5030211;28;19921;-61
2023/12/26 00:52:14;;;;;;;;;;;19.80;49.40;;;;;;5030117;28;19929;-62
2023/12/26 00:54:40;;;;;;;;;;;19.80;49.40;;;;;;5031493;28;19921;-61
2023/12/26 00:57:08;;;;;;;;;;;19.90;49.50;;;;;;5027673;28;19921;-61
2023/12/26 00:59:34;;;;;;;;;;;19.80;49.40;;;;;;5030190;28;19927;-62
2023/12/26 01:02:02;;;;;;;;;;;19.80;49.40;;;;;;5030108;28;19925;-62
2023/12/26 01:04:29;;;;;;;;;;;19.80;49.40;;;;;;5029385;28;20031;-61
2023/12/26 01:06:56;;;;;;;;;;;19.90;49.50;;;;;;5029913;28;20378;-62
2023/12/26 01:09:23;;;;;;;;;;;19.80;49.40;;;;;;5029706;28;19928;-62
2023/12/26 01:11:50;;;;;;;;;;;19.90;49.50;;;;;;5028014;28;19960;-62
2023/12/26 01:14:17;;;;;;;;;;;19.80;49.40;;;;;;5029070;28;19940;-61
2023/12/26 01:16:45;;;;;;;;;;;19.90;49.50;;;;;;5031176;28;19928;-62
2023/12/26 01:19:13;;;;;;;;;;;19.90;49.50;;;;;;5030533;28;19921;-62
2023/12/26 01:21:40;;;;;;;;;;;19.90;49.40;;;;;;5029490;28;19929;-61
2023/12/26 01:24:07;;;;;;;;;;;19.80;49.40;;;;;;5030270;28;19952;-62
2023/12/26 01:26:34;;;;;;;;;;;19.90;49.50;;;;;;5013245;28;19936;-62
2023/12/26 01:29:04;;;;;;;;;;;19.90;49.50;;;;;;5029835;28;19979;-62
2023/12/26 01:31:31;;;;;;;;;;;19.80;49.40;;;;;;5023770;28;19971;-62
2023/12/26 01:33:58;;;;;;;;;;;19.90;49.50;;;;;;5029125;28;19933;-62
2023/12/26 01:36:26;;;;;;;;;;;19.80;49.40;;;;;;5029727;28;19925;-62
2023/12/26 01:38:53;;;;;;;;;;;19.90;49.50;;;;;;5030765;28;19926;-62
2023/12/26 01:41:20;;;;;;;;;;;19.80;49.40;;;;;;5029643;28;19929;-62
2023/12/26 01:43:47;;;;;;;;;;;19.80;49.40;;;;;;5029653;28;19928;-62
2023/12/26 01:46:14;;;;;;;;;;;19.90;49.50;;;;;;5029570;28;19929;-62
2023/12/26 01:48:41;;;;;;;;;;;19.90;49.50;;;;;;5027094;28;19926;-62
2023/12/26 01:51:07;;;;;;;;;;;19.90;49.50;;;;;;5029360;28;19932;-62
2023/12/26 01:53:38;;;;;;;;;;;19.90;49.50;;;;;;5030178;28;19925;-62
2023/12/26 01:56:06;;;;;;;;;;;19.90;49.50;;;;;;5034667;28;19927;-62
2023/12/26 01:58:33;;;;;;;;;;;19.90;50.10;;;;;;5034733;28;19921;-62
2023/12/26 02:00:59;;;;;;;;;;;19.90;49.50;;;;;;5034441;28;19932;-61
2023/12/26 02:03:27;;;;;;;;;;;19.80;49.40;;;;;;5031780;28;19921;-62
2023/12/26 02:05:53;;;;;;;;;;;19.80;49.40;;;;;;5049470;28;19928;-62
2023/12/26 02:08:20;;;;;;;;;;;19.80;49.40;;;;;;5033127;28;19921;-62
2023/12/26 02:10:49;;;;;;;;;;;19.90;49.50;;;;;;5033215;28;19921;-62
2023/12/26 02:13:15;;;;;;;;;;;19.80;49.40;;;;;;5033080;28;19932;-62
2023/12/26 02:15:42;;;;;;;;;;;19.80;49.40;;;;;;5033136;28;19967;-61
2023/12/26 02:18:09;;;;;;;;;;;19.90;49.50;;;;;;5032977;28;19921;-62
2023/12/26 02:20:36;;;;;;;;;;;19.80;49.40;;;;;;5031515;28;19932;-62
2023/12/26 02:23:02;;;;;;;;;;;19.90;50.10;;;;;;5028914;28;19921;-62
2023/12/26 02:25:30;;;;;;;;;;;19.90;49.50;;;;;;5030595;28;19921;-62
2023/12/26 02:27:58;;;;;;;;;;;19.80;49.40;;;;;;5032917;28;19921;-61
2023/12/26 02:30:25;;;;;;;;;;;19.80;49.40;;;;;;5030182;28;20036;-62
2023/12/26 02:32:53;;;;;;;;;;;19.80;49.30;;;;;;5032899;28;19925;-61
2023/12/26 02:35:19;;;;;;;;;;;19.80;49.30;;;;;;5032931;28;19921;-61
2023/12/26 02:37:46;;;;;;;;;;;19.90;49.50;;;;;;5032496;28;19921;-62
2023/12/26 02:40:13;;;;;;;;;;;19.90;49.50;;;;;;5013566;28;19945;-61
2023/12/26 02:42:41;;;;;;;;;;;19.90;49.40;;;;;;5030509;28;19921;-62
2023/12/26 02:45:09;;;;;;;;;;;19.90;49.50;;;;;;5033687;28;19945;-62
2023/12/26 02:47:36;;;;;;;;;;;19.90;49.50;;;;;;5032306;28;19929;-62
2023/12/26 02:50:02;;;;;;;;;;;19.90;49.40;;;;;;5032633;28;19932;-61
2023/12/26 02:52:29;;;;;;;;;;;19.90;49.50;;;;;;5032270;28;19947;-62
2023/12/26 02:54:56;;;;;;;;;;;19.80;49.30;;;;;;5032277;28;19932;-61
2023/12/26 02:57:23;;;;;;;;;;;19.90;49.50;;;;;;5031810;28;19928;-61
2023/12/26 02:59:51;;;;;;;;;;;19.90;49.40;;;;;;5031120;28;19940;-61
2023/12/26 03:02:18;;;;;;;;;;;19.90;49.40;;;;;;5032814;28;19922;-61
2023/12/26 03:04:45;;;;;;;;;;;19.80;49.40;;;;;;5029542;28;19925;-61
2023/12/26 03:07:12;;;;;;;;;;;19.80;49.30;;;;;;5032847;28;19921;-61
2023/12/26 03:09:39;;;;;;;;;;;19.90;49.50;;;;;;5033050;28;19979;-62
2023/12/26 03:12:06;;;;;;;;;;;19.80;49.40;;;;;;5033372;28;19932;-61
2023/12/26 03:14:32;;;;;;;;;;;19.80;49.40;;;;;;5032061;28;19932;-61
2023/12/26 03:17:01;;;;;;;;;;;19.90;49.40;;;;;;5032166;28;19921;-61
2023/12/26 03:19:27;;;;;;;;;;;19.80;49.40;;;;;;5026699;28;19936;-61
2023/12/26 03:21:54;;;;;;;;;;;19.80;50.00;;;;;;5033197;28;19921;-61
2023/12/26 03:24:21;;;;;;;;;;;19.90;49.50;;;;;;5032458;28;19928;-61
2023/12/26 03:26:48;;;;;;;;;;;19.90;49.40;;;;;;5015650;28;19976;-61
2023/12/26 03:29:14;;;;;;;;;;;19.90;49.40;;;;;;5031905;28;19925;-61
2023/12/26 03:31:44;;;;;;;;;;;19.80;49.30;;;;;;5031558;28;19921;-61
2023/12/26 03:34:12;;;;;;;;;;;19.90;49.40;;;;;;5031537;28;19925;-61
2023/12/26 03:36:42;;;;;;;;;;;19.80;49.30;;;;;;5031562;28;20052;-61
2023/12/26 03:39:09;;;;;;;;;;;19.90;49.50;;;;;;5031344;28;19933;-61
2023/12/26 03:41:36;;;;;;;;;;;19.90;49.40;;;;;;5031978;28;19936;-61
2023/12/26 03:44:03;;;;;;;;;;;19.80;49.30;;;;;;5031615;28;19925;-61
2023/12/26 03:46:29;;;;;;;;;;;19.90;49.40;;;;;;5031633;28;19996;-61
2023/12/26 03:48:56;;;;;;;;;;;19.80;49.30;;;;;;5032746;28;19933;-61
2023/12/26 03:51:24;;;;;;;;;;;19.90;49.50;;;;;;5031256;28;19921;-61
2023/12/26 03:53:51;;;;;;;;;;;19.90;49.50;;;;;;5031493;28;19925;-61
2023/12/26 03:56:18;;;;;;;;;;;19.90;49.40;;;;;;5031053;28;19936;-61
2023/12/26 03:58:44;;;;;;;;;;;19.90;49.40;;;;;;5030195;28;19925;-61
2023/12/26 04:01:12;;;;;;;;;;;19.90;49.50;;;;;;5031043;28;19928;-61
2023/12/26 04:03:39;;;;;;;;;;;19.90;49.50;;;;;;5032038;28;19925;-61
2023/12/26 04:06:06;;;;;;;;;;;19.80;49.30;;;;;;5031252;28;19932;-61
2023/12/26 04:08:34;;;;;;;;;;;19.80;49.40;;;;;;5014315;28;19958;-61
2023/12/26 04:11:01;;;;;;;;;;;19.80;49.30;;;;;;5030834;28;19971;-61
2023/12/26 04:13:27;;;;;;;;;;;19.80;49.40;;;;;;5031044;28;20302;-61
2023/12/26 04:15:54;;;;;;;;;;;19.90;49.40;;;;;;5026233;28;19979;-61
2023/12/26 04:18:21;;;;;;;;;;;19.90;49.40;;;;;;5031813;28;19925;-61
2023/12/26 04:20:48;;;;;;;;;;;19.90;49.50;;;;;;5032006;28;19925;-61
2023/12/26 04:23:15;;;;;;;;;;;19.90;49.40;;;;;;5014409;28;19975;-61
2023/12/26 04:25:43;;;;;;;;;;;19.80;49.30;;;;;;5031877;28;19925;-61
2023/12/26 04:28:10;;;;;;;;;;;19.80;49.30;;;;;;5030833;28;19932;-61
2023/12/26 04:30:37;;;;;;;;;;;19.90;49.50;;;;;;5013730;28;19929;-60
2023/12/26 04:33:05;;;;;;;;;;;19.90;49.40;;;;;;5030035;28;19925;-60
2023/12/26 04:35:32;;;;;;;;;;;19.90;49.40;;;;;;5027224;28;19921;-61
2023/12/26 04:37:59;;;;;;;;;;;19.90;49.40;;;;;;5045803;28;19921;-61
2023/12/26 04:40:26;;;;;;;;;;;19.90;49.40;;;;;;5031417;28;19921;-61
2023/12/26 04:42:54;;;;;;;;;;;19.80;49.30;;;;;;5014034;28;19949;-60
2023/12/26 04:45:20;;;;;;;;;;;19.80;49.30;;;;;;5031354;28;19937;-60
2023/12/26 04:47:47;;;;;;;;;;;19.80;49.30;;;;;;5031469;28;19929;-60
2023/12/26 04:50:14;;;;;;;;;;;19.90;49.40;;;;;;5027043;28;19944;-61
2023/12/26 04:52:41;;;;;;;;;;;19.90;49.40;;;;;;5030566;28;19956;-61
2023/12/26 04:55:08;;;;;;;;;;;19.80;49.30;;;;;;5027053;28;19933;-60
2023/12/26 04:57:35;;;;;;;;;;;19.80;49.30;;;;;;5029800;28;19944;-61
2023/12/26 05:00:03;;;;;;;;;;;19.80;50.00;;;;;;5030153;28;19932;-61
2023/12/26 05:02:30;;;;;;;;;;;19.80;49.30;;;;;;5030031;28;19921;-61
2023/12/26 05:04:57;;;;;;;;;;;19.90;49.40;;;;;;5030131;28;19929;-60
2023/12/26 05:07:24;;;;;;;;;;;19.80;49.30;;;;;;5030787;28;19922;-61
2023/12/26 05:09:50;;;;;;;;;;;19.80;49.30;;;;;;5030187;28;19928;-61
2023/12/26 05:12:17;;;;;;;;;;;19.80;49.30;;;;;;5029606;28;19925;-61
2023/12/26 05:14:44;;;;;;;;;;;19.80;49.30;;;;;;5029013;28;20104;-61
2023/12/26 05:17:12;;;;;;;;;;;19.80;49.30;;;;;;5029643;28;19921;-61
2023/12/26 05:19:40;;;;;;;;;;;19.90;49.40;;;;;;5030914;28;19921;-61
2023/12/26 05:22:06;;;;;;;;;;;19.90;49.40;;;;;;5013127;28;19925;-61
2023/12/26 05:24:34;;;;;;;;;;;19.90;49.30;;;;;;5029387;28;19976;-61
2023/12/26 05:27:00;;;;;;;;;;;19.90;49.30;;;;;;5029701;28;19921;-61
2023/12/26 05:29:27;;;;;;;;;;;19.90;49.30;;;;;;5025360;28;19925;-61
2023/12/26 05:31:54;;;;;;;;;;;19.80;49.30;;;;;;5030435;28;19924;-61
2023/12/26 05:34:22;;;;;;;;;;;19.90;49.30;;;;;;5029919;28;19928;-61
2023/12/26 05:36:49;;;;;;;;;;;19.90;49.30;;;;;;5028364;28;19929;-61
2023/12/26 05:39:16;;;;;;;;;;;19.80;49.20;;;;;;5030502;28;19921;-60
2023/12/26 05:41:42;;;;;;;;;;;19.80;49.20;;;;;;5029801;28;19929;-61
2023/12/26 05:44:08;;;;;;;;;;;19.90;49.30;;;;;;5029284;28;20141;-61
2023/12/26 05:46:36;;;;;;;;;;;19.80;49.20;;;;;;5030603;28;19925;-61
2023/12/26 05:49:03;;;;;;;;;;;19.80;49.30;;;;;;5027446;28;20008;-61
2023/12/26 05:51:30;;;;;;;;;;;19.80;49.30;;;;;;5029925;28;19928;-61
2023/12/26 05:53:57;;;;;;;;;;;19.90;49.30;;;;;;5029159;28;19944;-61
2023/12/26 05:56:24;;;;;;;;;;;19.80;49.30;;;;;;5028935;28;19925;-61
2023/12/26 05:58:51;;;;;;;;;;;19.80;49.20;;;;;;5029501;28;19925;-60
2023/12/26 06:01:17;;;;;;;;;;;19.90;49.30;;;;;;5025555;28;19925;-61
2023/12/26 06:03:44;;;;;;;;;;;19.90;49.30;;;;;;5028548;28;19929;-61
2023/12/26 06:06:11;;;;;;;;;;;19.80;49.20;;;;;;5029137;28;19932;-61
2023/12/26 06:08:40;;;;;;;;;;;19.80;49.20;;;;;;5029271;28;19933;-61
2023/12/26 06:11:06;;;;;;;;;;;19.80;49.20;;;;;;5029237;28;19921;-61
2023/12/26 06:13:33;;;;;;;;;;;19.80;49.20;;;;;;5029010;28;19921;-61
2023/12/26 06:16:00;;;;;;;;;;;19.80;49.20;;;;;;5012540;28;19967;-61
2023/12/26 06:18:27;;;;;;;;;;;19.90;49.30;;;;;;5030828;28;20004;-61
2023/12/26 06:20:54;;;;;;;;;;;19.80;49.20;;;;;;5025672;28;19921;-61
2023/12/26 06:23:20;;;;;;;;;;;19.90;49.20;;;;;;5028546;28;19925;-61
2023/12/26 06:25:48;;;;;;;;;;;19.80;49.20;;;;;;5027587;28;19925;-61
2023/12/26 06:28:15;;;;;;;;;;;19.80;49.20;;;;;;5029364;28;19941;-61
2023/12/26 06:30:42;;;;;;;;;;;19.90;49.20;;;;;;5030262;28;19926;-60
2023/12/26 06:33:09;;;;;;;;;;;19.80;49.20;;;;;;5030247;28;19932;-61
2023/12/26 06:35:38;;;;;;;;;;;19.80;49.20;;;;;;5030101;28;19932;-61
2023/12/26 06:38:11;;;;;;;;;;;19.80;49.20;;;;;;5029074;28;19928;-61
2023/12/26 06:40:38;;;;;;;;;;;19.80;49.20;;;;;;5028283;28;19933;-61
2023/12/26 06:43:06;;;;;;;;;;;19.80;49.20;;;;;;5033682;28;19921;-60
2023/12/26 06:45:33;;;;;;;;;;;19.80;49.20;;;;;;5032497;28;19925;-61
2023/12/26 06:48:02;;;;;;;;;;;19.80;49.20;;;;;;5032215;28;19921;-61
2023/12/26 06:50:28;;;;;;;;;;;19.80;49.20;;;;;;5030263;28;19932;-61
2023/12/26 06:52:55;;;;;;;;;;;19.80;49.20;;;;;;5026919;28;19929;-61
2023/12/26 06:55:22;;;;;;;;;;;19.80;49.20;;;;;;5032216;28;19925;-61
2023/12/26 06:57:49;;;;;;;;;;;19.80;49.20;;;;;;5032336;28;19929;-61
2023/12/26 07:00:18;;;;;;;;;;;19.80;49.10;;;;;;5032267;28;19921;-61
2023/12/26 07:02:45;;;;;;;;;;;19.80;49.10;;;;;;5032464;28;19921;-60
2023/12/26 07:05:11;;;;;;;;;;;19.80;49.10;;;;;;5032314;28;19921;-61
2023/12/26 07:07:38;;;;;;;;;;;19.80;49.10;;;;;;5032252;28;19964;-61
2023/12/26 07:10:05;;;;;;;;;;;19.80;49.10;;;;;;5031967;28;19925;-61
2023/12/26 07:12:32;;;;;;;;;;;19.80;49.10;;;;;;5026598;28;19932;-61
2023/12/26 07:14:58;;;;;;;;;;;19.90;49.20;;;;;;5031713;28;19929;-61
2023/12/26 07:17:27;;;;;;;;;;;19.80;49.10;;;;;;5032116;28;19931;-61
2023/12/26 07:19:53;;;;;;;;;;;19.80;49.10;;;;;;5033871;28;19925;-60
2023/12/26 07:22:20;;;;;;;;;;;19.80;49.10;;;;;;5032142;28;20015;-61
2023/12/26 07:24:47;;;;;;;;;;;19.80;49.10;;;;;;5034897;28;19921;-60
2023/12/26 07:27:17;;;;;;;;;;;19.90;49.10;;;;;;5032187;28;19929;-61
2023/12/26 07:29:43;;;;;;;;;;;19.80;49.10;;;;;;5033004;28;19940;-60
2023/12/26 07:32:10;;;;;;;;;;;19.80;49.10;;;;;;5027174;28;19968;-60
2023/12/26 07:34:40;;;;;;;;;;;19.80;49.00;;;;;;5024810;28;20410;-61
2023/12/26 07:37:07;;;;;;;;;;;19.80;49.10;;;;;;5029037;28;19925;-60
2023/12/26 07:39:33;;;;;;;;;;;19.80;49.10;;;;;;5028207;28;20066;-61
2023/12/26 07:42:01;;;;;;;;;;;19.80;49.00;;;;;;5030037;28;19928;-61
2023/12/26 07:44:28;;;;;;;;;;;19.90;49.10;;;;;;5027433;28;19921;-61
2023/12/26 07:46:54;;;;;;;;;;;19.80;49.00;;;;;;5051688;28;20394;-61
2023/12/26 07:49:22;;;;;;;;;;;19.80;49.00;;;;;;5029081;28;19928;-60
2023/12/26 07:51:50;;;;;;;;;;;19.80;49.00;;;;;;5022859;28;19922;-60
2023/12/26 07:54:17;;;;;;;;;;;19.80;49.00;;;;;;5035396;28;19931;-60
2023/12/26 07:56:43;;;;;;;;;;;19.80;49.10;;;;;;5031034;28;19944;-61
2023/12/26 07:59:11;;;;;;;;;;;19.80;49.00;;;;;;5029107;28;20087;-61
2023/12/26 08:01:37;;;;;;;;;;;19.80;49.00;;;;;;5033716;28;19944;-60
2023/12/26 08:04:04;;;;;;;;;;;19.80;49.00;;;;;;5027801;28;19921;-60
2023/12/26 08:06:31;;;;;;;;;;;19.90;49.00;;;;;;5040345;28;19929;-60
2023/12/26 08:08:59;;;;;;;;;;;19.80;49.00;;;;;;5033401;28;19925;-60
2023/12/26 08:11:26;;;;;;;;;;;19.80;49.00;;;;;;5037974;28;19933;-60
2023/12/26 08:13:53;;;;;;;;;;;19.80;49.00;;;;;;5024990;28;19922;-60
2023/12/26 08:16:19;;;;;;;;;;;19.80;49.00;;;;;;5046100;28;19924;-60
2023/12/26 08:18:46;;;;;;;;;;;19.80;49.00;;;;;;5055415;28;19920;-60
2023/12/26 08:21:13;;;;;;;;;;;19.80;49.00;;;;;;5044506;28;19921;-60
2023/12/26 08:23:40;;;;;;;;;;;19.80;49.00;;;;;;5033166;28;19929;-61
2023/12/26 08:26:08;;;;;;;;;;;19.80;49.00;;;;;;5033207;28;19932;-60
2023/12/26 08:28:35;;;;;;;;;;;19.80;49.00;;;;;;5050617;28;19924;-60
2023/12/26 08:31:02;;;;;;;;;;;19.80;49.00;;;;;;5050559;28;19952;-60
2023/12/26 08:33:29;;;;;;;;;;;19.80;48.90;;;;;;5035453;28;19932;-60
2023/12/26 08:35:56;;;;;;;;;;;19.80;48.90;;;;;;5017579;28;19929;-61
2023/12/26 08:38:23;;;;;;;;;;;19.80;48.90;;;;;;5036940;28;19927;-60
2023/12/26 08:40:50;;;;;;;;;;;19.80;49.00;;;;;;5038211;28;19925;-61
2023/12/26 08:43:18;;;;;;;;;;;19.90;49.00;;;;;;5028910;28;19994;-60
2023/12/26 08:45:45;;;;;;;;;;;19.90;49.00;;;;;;5023847;28;19921;-61
2023/12/26 08:48:12;;;;;;;;;;;19.80;48.90;;;;;;5036677;28;19928;-61
2023/12/26 08:50:39;;;;;;;;;;;19.80;48.90;;;;;;5037903;28;19933;-61
2023/12/26 08:53:05;;;;;;;;;;;19.80;48.90;;;;;;5032581;28;19921;-60
2023/12/26 08:55:32;;;;;;;;;;;19.80;48.90;;;;;;5032794;28;19929;-60
2023/12/26 08:57:59;;;;;;;;;;;19.80;48.90;;;;;;5030500;28;19924;-61
2023/12/26 09:00:27;;;;;;;;;;;19.80;48.90;;;;;;5037776;28;19936;-61
2023/12/26 09:02:54;;;;;;;;;;;19.90;49.00;;;;;;5017028;28;19944;-60
2023/12/26 09:05:21;;;;;;;;;;;19.90;49.00;;;;;;5028546;28;19925;-60
2023/12/26 09:07:48;;;;;;;;;;;19.80;48.90;;;;;;5030507;28;19971;-60
2023/12/26 09:10:15;;;;;;;;;;;19.80;48.80;;;;;;5029716;28;19929;-60
2023/12/26 09:12:41;;;;;;;;;;;19.80;48.80;;;;;;5029055;28;19928;-61
2023/12/26 09:15:09;;;;;;;;;;;19.90;48.80;;;;;;5025932;28;19933;-60
2023/12/26 09:17:37;;;;;;;;;;;19.80;48.70;;;;;;5030015;28;19928;-61
2023/12/26 09:20:04;;;;;;;;;;;19.80;49.30;;;;;;5034722;28;19984;-61
2023/12/26 09:22:30;;;;;;;;;;;19.80;48.70;;;;;;5027252;28;19932;-61
2023/12/26 09:24:57;;;;;;;;;;;19.80;48.70;;;;;;5029902;28;19932;-61
2023/12/26 09:27:24;;;;;;;;;;;19.80;48.70;;;;;;5029921;28;19936;-61
2023/12/26 09:29:51;;;;;;;;;;;19.80;48.70;;;;;;5028322;28;19933;-60
2023/12/26 09:32:18;;;;;;;;;;;19.80;48.70;;;;;;5031429;28;19920;-61
2023/12/26 09:34:46;;;;;;;;;;;19.80;48.70;;;;;;5035040;28;19921;-61
2023/12/26 09:37:13;;;;;;;;;;;19.80;48.70;;;;;;5035592;28;19933;-61
2023/12/26 09:39:39;;;;;;;;;;;19.80;48.70;;;;;;5029758;28;19925;-61
2023/12/26 09:42:06;;;;;;;;;;;19.80;48.70;;;;;;5026145;28;19925;-61
2023/12/26 09:44:33;;;;;;;;;;;19.80;48.70;;;;;;5037638;28;19924;-61
2023/12/26 09:47:00;;;;;;;;;;;19.80;48.70;;;;;;5031042;28;19933;-61
2023/12/26 09:49:27;;;;;;;;;;;19.80;48.70;;;;;;5035534;28;19921;-61
2023/12/26 09:51:55;;;;;;;;;;;19.80;49.30;;;;;;5021226;28;20256;-61
2023/12/26 09:54:22;;;;;;;;;;;19.80;48.70;;;;;;5036422;28;19928;-61
2023/12/26 09:56:48;;;;;;;;;;;19.80;48.60;;;;;;5038690;28;19928;-61
2023/12/26 09:59:15;;;;;;;;;;;19.80;48.60;;;;;;5033805;28;19929;-61
2023/12/26 10:01:43;;;;;;;;;;;19.80;48.60;;;;;;5026955;28;19925;-61
2023/12/26 10:04:09;;;;;;;;;;;19.80;48.60;;;;;;5022635;28;19928;-61
2023/12/26 10:06:36;;;;;;;;;;;19.80;48.60;;;;;;5031782;28;19928;-61
2023/12/26 10:09:05;;;;;;;;;;;19.90;48.70;;;;;;5037116;28;19940;-61
2023/12/26 10:11:32;;;;;;;;;;;19.90;48.70;;;;;;5030503;28;19925;-61
2023/12/26 10:13:59;;;;;;;;;;;19.90;48.70;;;;;;5028360;28;19922;-61
2023/12/26 10:16:26;;;;;;;;;;;19.90;48.70;;;;;;5020088;28;19922;-61
2023/12/26 10:18:53;;;;;;;;;;;19.90;48.60;;;;;;5041546;28;19921;-61
2023/12/26 10:21:19;;;;;;;;;;;19.90;48.60;;;;;;5038989;28;19920;-61
2023/12/26 10:23:46;;;;;;;;;;;19.90;48.70;;;;;;5038936;28;19932;-61
2023/12/26 10:26:14;;;;;;;;;;;19.90;48.70;;;;;;5035538;28;19921;-61
2023/12/26 10:28:42;;;;;;;;;;;19.80;48.60;;;;;;5033618;28;19932;-61
2023/12/26 10:31:13;;;;;;;;;;;19.90;48.60;;;;;;5042967;28;19931;-61
2023/12/26 10:33:40;;;;;;;;;;;19.90;48.60;;;;;;5030909;28;19939;-61
2023/12/26 10:36:07;;;;;;;;;;;19.90;48.60;;;;;;5031124;28;19933;-61
2023/12/26 10:38:34;;;;;;;;;;;19.90;48.60;;;;;;5034762;28;19926;-61
2023/12/26 10:41:01;;;;;;;;;;;19.80;48.60;;;;;;5037831;28;19992;-61
2023/12/26 10:43:30;;;;;;;;;;;19.80;48.50;;;;;;5036221;28;19925;-61
2023/12/26 10:45:58;;;;;;;;;;;19.90;48.60;;;;;;5028245;28;19922;-61
2023/12/26 10:48:25;;;;;;;;;;;19.80;48.50;;;;;;5026626;28;19922;-61
2023/12/26 10:50:52;;;;;;;;;;;19.90;48.60;;;;;;5040973;28;19928;-61
2023/12/26 10:53:19;;;;;;;;;;;19.80;48.50;;;;;;5029505;28;19921;-61
2023/12/26 10:55:46;;;;;;;;;;;19.90;48.60;;;;;;5029019;28;19976;-61
2023/12/26 10:58:16;;;;;;;;;;;19.90;48.60;;;;;;5027406;28;19925;-61
2023/12/26 11:00:50;;;;;;;;;;;19.80;49.10;;;;;;5043093;28;19921;-60
2023/12/26 13:51:25;;;;;;;;;;;19.80;47.40;;;;;;5031470;28;19909;-61
2023/12/26 13:53:51;;;;;;;;;;;19.80;47.40;;;;;;5023917;28;19948;-60
2023/12/26 13:56:18;;;;;;;;;;;19.80;47.40;;;;;;5031645;28;20139;-61
2023/12/26 13:58:44;;;;;;;;;;;19.80;47.50;;;;;;5032413;28;19964;-61
2023/12/26 14:01:11;;;;;;;;;;;19.80;47.50;;;;;;5032561;28;19965;-61
2023/12/26 14:03:37;;;;;;;;;;;19.80;47.50;;;;;;5031289;28;19941;-60
2023/12/26 14:06:04;;;;;;;;;;;19.80;47.50;;;;;;5042488;28;19921;-61
2023/12/26 14:08:32;;;;;;;;;;;19.80;47.50;;;;;;5040633;28;19924;-61
2023/12/26 14:10:58;;;;;;;;;;;19.80;47.50;;;;;;5031116;28;19929;-61
2023/12/26 14:13:25;;;;;;;;;;;19.80;47.50;;;;;;5030516;28;19928;-61
2023/12/26 14:15:51;;;;;;;;;;;19.80;47.60;;;;;;5035466;28;19971;-61
2023/12/26 14:18:18;;;;;;;;;;;19.80;47.60;;;;;;5045596;28;20292;-60
2023/12/26 14:20:45;;;;;;;;;;;19.80;48.20;;;;;;5039088;28;19927;-61
2023/12/26 14:23:12;;;;;;;;;;;19.80;47.60;;;;;;5036090;28;19928;-61
2023/12/26 14:25:40;;;;;;;;;;;19.80;47.60;;;;;;5030254;28;19933;-61
2023/12/26 14:28:06;;;;;;;;;;;19.80;47.60;;;;;;5045028;28;19921;-60
2023/12/26 14:30:33;;;;;;;;;;;19.80;47.60;;;;;;5038285;28;19943;-61
2023/12/26 14:33:00;;;;;;;;;;;19.80;47.60;;;;;;5035939;28;19921;-61
2023/12/26 14:35:26;;;;;;;;;;;19.80;47.70;;;;;;5026118;28;19921;-61
2023/12/26 14:37:53;;;;;;;;;;;19.80;47.70;;;;;;5034659;28;19927;-61
2023/12/26 14:40:19;;;;;;;;;;;19.80;47.70;;;;;;5032795;28;19928;-61
2023/12/26 14:42:48;;;;;;;;;;;19.80;47.70;;;;;;5036951;28;19928;-61
2023/12/26 14:45:14;;;;;;;;;;;19.80;47.70;;;;;;5033882;28;19927;-61
2023/12/26 14:47:41;;;;;;;;;;;19.80;47.70;;;;;;5033683;28;20085;-61
2023/12/26 14:50:07;;;;;;;;;;;19.80;47.80;;;;;;5042588;28;19927;-61
2023/12/26 14:52:34;;;;;;;;;;;19.80;47.70;;;;;;5035465;28;19995;-61
2023/12/26 14:55:01;;;;;;;;;;;19.80;47.70;;;;;;5031803;28;19924;-61
2023/12/26 14:57:27;;;;;;;;;;;19.80;47.70;;;;;;5028943;28;19925;-61
2023/12/26 14:59:55;;;;;;;;;;;19.80;47.70;;;;;;5033519;28;19935;-61
2023/12/26 15:02:24;;;;;;;;;;;19.80;47.70;;;;;;5028735;28;19921;-61
2023/12/26 15:04:51;;;;;;;;;;;19.80;47.70;;;;;;5027161;28;19921;-61
2023/12/26 15:07:18;;;;;;;;;;;19.80;47.70;;;;;;5033313;28;19936;-61
2023/12/26 15:09:45;;;;;;;;;;;19.90;47.80;;;;;;5031284;28;20032;-61
2023/12/26 15:12:12;;;;;;;;;;;19.90;47.80;;;;;;5021112;28;19929;-61
2023/12/26 15:14:39;;;;;;;;;;;19.80;47.70;;;;;;5031718;28;19939;-61
2023/12/26 15:17:07;;;;;;;;;;;19.90;47.80;;;;;;5033051;28;19936;-61
2023/12/26 15:19:33;;;;;;;;;;;19.90;47.80;;;;;;5028567;28;19933;-62
2023/12/26 15:22:00;;;;;;;;;;;19.80;47.80;;;;;;5027901;28;19932;-61
2023/12/26 15:24:27;;;;;;;;;;;19.80;47.80;;;;;;5028304;28;19936;-61
2023/12/26 15:26:54;;;;;;;;;;;19.80;47.80;;;;;;5031829;28;20010;-61
2023/12/26 15:29:21;;;;;;;;;;;19.90;47.80;;;;;;5032254;28;19925;-61
2023/12/26 15:31:48;;;;;;;;;;;19.80;47.80;;;;;;5026447;28;19928;-61
2023/12/26 15:34:16;;;;;;;;;;;19.80;47.80;;;;;;5031590;28;19925;-61
2023/12/26 15:36:44;;;;;;;;;;;19.90;47.80;;;;;;5026994;28;19948;-61
2023/12/26 15:39:11;;;;;;;;;;;19.90;47.80;;;;;;5031310;28;19921;-61
2023/12/26 15:41:38;;;;;;;;;;;19.90;47.80;;;;;;5029525;28;19928;-62
2023/12/26 15:44:05;;;;;;;;;;;19.80;48.40;;;;;;5031954;28;19929;-62
2023/12/26 15:46:32;;;;;;;;;;;19.90;47.90;;;;;;5026202;28;20208;-61
2023/12/26 15:48:59;;;;;;;;;;;19.80;47.80;;;;;;5031402;28;19929;-62
2023/12/26 15:51:27;;;;;;;;;;;19.80;47.80;;;;;;5026699;28;19976;-61
2023/12/26 15:53:54;;;;;;;;;;;19.80;47.80;;;;;;5027181;28;19933;-62
2023/12/26 15:56:22;;;;;;;;;;;19.90;47.90;;;;;;5027426;28;20370;-61
2023/12/26 15:58:49;;;;;;;;;;;19.90;47.90;;;;;;5031395;28;20116;-62
2023/12/26 16:01:19;;;;;;;;;;;19.90;47.90;;;;;;5032303;28;19921;-62
2023/12/26 16:03:46;;;;;;;;;;;19.80;47.80;;;;;;5023627;28;20040;-62
2023/12/26 16:06:16;;;;;;;;;;;19.90;48.40;;;;;;5023801;28;20379;-61
2023/12/26 16:08:45;;;;;;;;;;;19.90;47.80;;;;;;5019973;28;19921;-61
2023/12/26 16:11:12;;;;;;;;;;;19.80;47.80;;;;;;5023216;28;19929;-61
2023/12/26 16:13:39;;;;;;;;;;;19.80;47.80;;;;;;5020323;28;19936;-62
2023/12/26 16:16:06;;;;;;;;;;;19.80;47.80;;;;;;5024946;28;19921;-61
2023/12/26 16:18:33;;;;;;;;;;;19.80;47.80;;;;;;5031608;28;19932;-62
2023/12/26 16:21:01;;;;;;;;;;;19.80;47.80;;;;;;5025772;28;19921;-61
2023/12/26 16:23:28;;;;;;;;;;;19.90;47.80;;;;;;5030451;28;19921;-62
2023/12/26 16:25:56;;;;;;;;;;;19.80;47.80;;;;;;5030746;28;19924;-60
2023/12/26 16:28:23;;;;;;;;;;;19.80;47.80;;;;;;5029936;28;19933;-62
2023/12/26 16:30:50;;;;;;;;;;;19.90;47.90;;;;;;5030971;28;19921;-61
2023/12/26 16:33:17;;;;;;;;;;;19.80;47.80;;;;;;5030356;28;19928;-61
2023/12/26 16:35:44;;;;;;;;;;;19.80;48.00;;;;;;5026645;28;19928;-61
2023/12/26 16:38:11;;;;;;;;;;;19.90;47.80;;;;;;5031501;28;19925;-61
2023/12/26 16:40:38;;;;;;;;;;;19.90;47.80;;;;;;5012495;28;19928;-62
2023/12/26 16:43:06;;;;;;;;;;;19.90;47.90;;;;;;5027909;28;19928;-61
2023/12/26 16:45:33;;;;;;;;;;;19.90;47.80;;;;;;5031405;28;19928;-62
2023/12/26 16:48:00;;;;;;;;;;;19.90;48.40;;;;;;5029164;28;19925;-62
2023/12/26 16:50:27;;;;;;;;;;;19.90;47.80;;;;;;5030178;28;19928;-63
2023/12/26 16:52:53;;;;;;;;;;;19.80;47.80;;;;;;5031009;28;19921;-62
2023/12/26 16:55:20;;;;;;;;;;;19.90;47.90;;;;;;5027174;28;19928;-61
2023/12/26 16:57:47;;;;;;;;;;;19.80;47.80;;;;;;5021743;28;19929;-61
2023/12/26 17:00:16;;;;;;;;;;;19.90;47.80;;;;;;5030598;28;19928;-62
2023/12/26 17:02:43;;;;;;;;;;;19.80;47.70;;;;;;5025849;28;19944;-62